createdAt,value
2018-11-01T00:01:19.901Z,95092.00
2018-11-01T00:03:49.380Z,95091.00
2018-11-01T00:06:18.857Z,95095.00
2018-11-01T00:08:48.460Z,95089.00
2018-11-01T00:11:18.528Z,95095.00
2018-11-01T00:13:48.052Z,95094.00
2018-11-01T00:16:17.446Z,95082.00
2018-11-01T00:18:46.972Z,95078.00
2018-11-01T00:21:16.892Z,95079.00
2018-11-01T00:23:46.391Z,95067.00
2018-11-01T00:26:15.748Z,95073.00
2018-11-01T00:28:45.262Z,95072.00
2018-11-01T00:31:14.730Z,95075.00
2018-11-01T00:33:44.857Z,95079.00
2018-11-01T00:36:14.477Z,95081.00
2018-11-01T00:38:43.928Z,95102.00
2018-11-01T00:41:13.451Z,95087.00
2018-11-01T00:43:42.947Z,95077.00
2018-11-01T00:46:12.440Z,95070.00
2018-11-01T00:48:41.928Z,95072.00
2018-11-01T00:51:11.970Z,95062.00
2018-11-01T00:53:41.365Z,95070.00
2018-11-01T00:56:10.831Z,95067.00
2018-11-01T00:58:40.423Z,95060.00
2018-11-01T01:01:10.028Z,95055.00
2018-11-01T01:03:39.636Z,95057.00
2018-11-01T01:06:09.287Z,95059.00
2018-11-01T01:08:38.951Z,95054.00
2018-11-01T01:11:08.392Z,95064.00
2018-11-01T01:13:37.905Z,95058.00
2018-11-01T01:16:07.877Z,95043.00
2018-11-01T01:18:37.488Z,95037.00
2018-11-01T01:21:07.406Z,95031.00
2018-11-01T01:23:37.234Z,95027.00
2018-11-01T01:26:07.540Z,95014.00
2018-11-01T01:28:37.110Z,94994.00
2018-11-01T01:31:06.755Z,94997.00
2018-11-01T01:33:36.338Z,94987.00
2018-11-01T01:36:05.946Z,95009.00
2018-11-01T01:38:35.396Z,95010.00
2018-11-01T01:41:04.812Z,95018.00
2018-11-01T01:43:34.354Z,95017.00
2018-11-01T01:46:03.894Z,95019.00
2018-11-01T01:48:33.328Z,95020.00
2018-11-01T01:51:02.869Z,95026.00
2018-11-01T01:53:32.268Z,95037.00
2018-11-01T01:56:01.808Z,95034.00
2018-11-01T01:58:31.312Z,95038.00
2018-11-01T02:01:00.792Z,95041.00
2018-11-01T02:03:30.321Z,95039.00
2018-11-01T02:05:59.790Z,95031.00
2018-11-01T02:08:29.278Z,95018.00
2018-11-01T02:10:59.728Z,95030.00
2018-11-01T02:13:29.351Z,95028.00
2018-11-01T02:15:58.840Z,95027.00
2018-11-01T02:18:28.380Z,95012.00
2018-11-01T02:20:58.062Z,95015.00
2018-11-01T02:23:27.575Z,95013.00
2018-11-01T02:25:57.070Z,95038.00
2018-11-01T02:28:26.525Z,95024.00
2018-11-01T02:30:56.114Z,95021.00
2018-11-01T02:33:25.654Z,95014.00
2018-11-01T02:35:55.203Z,94999.00
2018-11-01T02:38:25.387Z,95004.00
2018-11-01T02:40:54.846Z,95010.00
2018-11-01T02:43:24.321Z,95013.00
2018-11-01T02:45:54.049Z,95005.00
2018-11-01T02:48:23.738Z,95007.00
2018-11-01T02:50:53.540Z,94997.00
2018-11-01T02:53:23.796Z,94999.00
2018-11-01T02:55:53.677Z,94989.00
2018-11-01T02:58:23.378Z,94980.00
2018-11-01T03:00:53.228Z,94981.00
2018-11-01T03:03:23.391Z,94975.00
2018-11-01T03:05:53.370Z,94955.00
2018-11-01T03:08:23.118Z,94961.00
2018-11-01T03:10:52.696Z,94966.00
2018-11-01T03:13:22.204Z,94969.00
2018-11-01T03:15:51.589Z,94978.00
2018-11-01T03:18:21.099Z,94973.00
2018-11-01T03:20:50.701Z,94967.00
2018-11-01T03:23:20.514Z,94958.00
2018-11-01T03:25:49.991Z,94953.00
2018-11-01T03:28:19.431Z,94948.00
2018-11-01T03:30:48.870Z,94954.00
2018-11-01T03:33:18.421Z,94954.00
2018-11-01T03:35:48.071Z,94953.00
2018-11-01T03:38:18.500Z,94955.00
2018-11-01T03:40:47.973Z,94959.00
2018-11-01T03:43:17.571Z,94951.00
2018-11-01T03:45:47.632Z,94932.00
2018-11-01T03:48:17.203Z,94928.00
2018-11-01T03:50:46.674Z,94933.00
2018-11-01T03:53:16.149Z,94942.00
2018-11-01T03:55:45.639Z,94960.00
2018-11-01T03:58:14.996Z,94967.00
2018-11-01T04:00:44.445Z,94955.00
2018-11-01T04:03:13.929Z,94949.00
2018-11-01T04:05:43.393Z,94940.00
2018-11-01T04:08:12.939Z,94932.00
2018-11-01T04:10:42.424Z,94934.00
2018-11-01T04:13:12.777Z,94947.00
2018-11-01T04:15:42.298Z,94945.00
2018-11-01T04:18:11.750Z,94932.00
2018-11-01T04:20:41.178Z,94933.00
2018-11-01T04:23:10.701Z,94924.00
2018-11-01T04:25:40.184Z,94915.00
2018-11-01T04:28:09.632Z,94926.00
2018-11-01T04:30:39.106Z,94918.00
2018-11-01T04:33:08.629Z,94908.00
2018-11-01T04:35:38.187Z,94902.00
2018-11-01T04:38:07.590Z,94890.00
2018-11-01T04:40:37.549Z,94890.00
2018-11-01T04:43:07.170Z,94881.00
2018-11-01T04:45:36.640Z,94898.00
2018-11-01T04:48:06.429Z,94900.00
2018-11-01T04:50:35.871Z,94895.00
2018-11-01T04:53:05.602Z,94902.00
2018-11-01T04:55:35.085Z,94903.00
2018-11-01T04:58:04.604Z,94878.00
2018-11-01T05:00:34.111Z,94864.00
2018-11-01T05:03:03.584Z,94857.00
2018-11-01T05:05:33.514Z,94850.00
2018-11-01T05:08:03.068Z,94848.00
2018-11-01T05:10:32.549Z,94844.00
2018-11-01T05:13:01.894Z,94838.00
2018-11-01T05:15:31.442Z,94823.00
2018-11-01T05:18:00.930Z,94831.00
2018-11-01T05:20:30.336Z,94833.00
2018-11-01T05:22:59.764Z,94830.00
2018-11-01T05:25:29.577Z,94822.00
2018-11-01T05:27:59.471Z,94812.00
2018-11-01T05:30:29.040Z,94815.00
2018-11-01T05:32:58.478Z,94814.00
2018-11-01T05:35:27.992Z,94819.00
2018-11-01T05:37:57.738Z,94813.00
2018-11-01T05:40:27.313Z,94806.00
2018-11-01T05:42:56.798Z,94803.00
2018-11-01T05:45:26.260Z,94815.00
2018-11-01T05:47:55.784Z,94813.00
2018-11-01T05:50:25.225Z,94818.00
2018-11-01T05:52:54.718Z,94806.00
2018-11-01T05:55:24.170Z,94787.00
2018-11-01T05:57:53.606Z,94794.00
2018-11-01T06:00:23.064Z,94780.00
2018-11-01T06:02:53.080Z,94795.00
2018-11-01T06:05:22.526Z,94798.00
2018-11-01T06:07:59.433Z,94786.00
2018-11-01T06:10:28.991Z,94783.00
2018-11-01T06:12:58.513Z,94786.00
2018-11-01T06:15:28.087Z,94766.00
2018-11-01T06:17:57.620Z,94751.00
2018-11-01T06:20:27.260Z,94756.00
2018-11-01T06:22:56.767Z,94778.00
2018-11-01T06:25:26.257Z,94775.00
2018-11-01T06:27:55.821Z,94784.00
2018-11-01T06:30:25.341Z,94787.00
2018-11-01T06:32:54.827Z,94778.00
2018-11-01T06:35:27.888Z,94772.00
2018-11-01T06:37:58.756Z,94774.00
2018-11-01T06:40:28.408Z,94773.00
2018-11-01T06:42:58.119Z,94770.00
2018-11-01T06:45:27.700Z,94776.00
2018-11-01T06:47:57.706Z,94775.00
2018-11-01T06:50:27.336Z,94765.00
2018-11-01T06:52:56.819Z,94765.00
2018-11-01T06:55:26.850Z,94765.00
2018-11-01T06:57:56.338Z,94782.00
2018-11-01T07:00:25.840Z,94770.00
2018-11-01T07:02:55.342Z,94785.00
2018-11-01T07:05:24.793Z,94783.00
2018-11-01T07:07:54.268Z,94791.00
2018-11-01T07:10:24.342Z,94774.00
2018-11-01T07:12:54.457Z,94778.00
2018-11-01T07:15:23.970Z,94787.00
2018-11-01T07:17:53.378Z,94785.00
2018-11-01T07:20:22.851Z,94813.00
2018-11-01T07:22:52.551Z,94822.00
2018-11-01T07:25:22.121Z,94827.00
2018-11-01T07:27:51.523Z,94828.00
2018-11-01T07:30:21.005Z,94819.00
2018-11-01T07:32:50.495Z,94817.00
2018-11-01T07:35:19.934Z,94810.00
2018-11-01T07:37:49.593Z,94798.00
2018-11-01T07:40:19.995Z,94809.00
2018-11-01T07:42:49.461Z,94812.00
2018-11-01T07:45:19.781Z,94803.00
2018-11-01T07:47:49.404Z,94798.00
2018-11-01T07:50:18.969Z,94805.00
2018-11-01T07:52:48.694Z,94794.00
2018-11-01T07:55:19.094Z,94783.00
2018-11-01T07:57:48.765Z,94779.00
2018-11-01T08:00:19.150Z,94784.00
2018-11-01T08:02:48.734Z,94779.00
2018-11-01T08:05:18.220Z,94783.00
2018-11-01T08:07:47.804Z,94802.00
2018-11-01T08:10:18.482Z,94801.00
2018-11-01T08:12:49.216Z,94798.00
2018-11-01T08:15:20.344Z,94792.00
2018-11-01T08:17:50.036Z,94789.00
2018-11-01T08:20:19.839Z,94801.00
2018-11-01T08:22:49.261Z,94792.00
2018-11-01T08:25:18.892Z,94782.00
2018-11-01T08:27:48.453Z,94786.00
2018-11-01T08:30:18.614Z,94783.00
2018-11-01T08:32:48.127Z,94767.00
2018-11-01T08:35:17.775Z,94784.00
2018-11-01T08:37:47.384Z,94751.00
2018-11-01T08:40:17.201Z,94766.00
2018-11-01T08:42:47.135Z,94752.00
2018-11-01T08:45:17.011Z,94724.00
2018-11-01T08:47:46.933Z,94750.00
2018-11-01T08:50:16.983Z,94735.00
2018-11-01T08:52:46.483Z,94736.00
2018-11-01T08:55:16.030Z,94740.00
2018-11-01T08:57:46.440Z,94780.00
2018-11-01T09:00:15.969Z,94760.00
2018-11-01T09:02:45.711Z,94747.00
2018-11-01T09:05:15.383Z,94743.00
2018-11-01T09:07:45.107Z,94739.00
2018-11-01T09:10:16.001Z,94738.00
2018-11-01T09:12:45.769Z,94741.00
2018-11-01T09:15:16.525Z,94754.00
2018-11-01T09:17:46.159Z,94762.00
2018-11-01T09:20:16.632Z,94771.00
2018-11-01T09:22:46.218Z,94796.00
2018-11-01T09:25:15.694Z,94787.00
2018-11-01T09:27:45.419Z,94784.00
2018-11-01T09:30:15.968Z,94775.00
2018-11-01T09:32:45.636Z,94763.00
2018-11-01T09:35:15.096Z,94753.00
2018-11-01T09:37:44.688Z,94767.00
2018-11-01T09:40:15.499Z,94768.00
2018-11-01T09:42:45.504Z,94772.00
2018-11-01T09:45:15.046Z,94794.00
2018-11-01T09:47:45.853Z,94791.00
2018-11-01T09:50:15.051Z,94789.00
2018-11-01T09:52:44.560Z,94793.00
2018-11-01T09:55:13.992Z,94796.00
2018-11-01T09:57:43.470Z,94778.00
2018-11-01T10:00:14.269Z,94796.00
2018-11-01T10:02:44.251Z,94793.00
2018-11-01T10:05:13.775Z,94810.00
2018-11-01T10:07:43.201Z,94821.00
2018-11-01T10:10:13.699Z,94831.00
2018-11-01T10:12:43.133Z,94833.00
2018-11-01T10:15:13.072Z,94833.00
2018-11-01T10:17:43.015Z,94842.00
2018-11-01T10:20:13.996Z,94860.00
2018-11-01T10:22:44.071Z,94887.00
2018-11-01T10:25:15.088Z,94859.00
2018-11-01T10:27:44.633Z,94837.00
2018-11-01T10:30:16.290Z,94837.00
2018-11-01T10:32:46.066Z,94829.00
2018-11-01T10:35:16.737Z,94826.00
2018-11-01T10:37:46.362Z,94832.00
2018-11-01T10:40:18.205Z,94831.00
2018-11-01T10:42:47.611Z,94825.00
2018-11-01T10:45:17.086Z,94812.00
2018-11-01T10:47:48.028Z,94804.00
2018-11-01T10:50:18.863Z,94803.00
2018-11-01T10:52:48.764Z,94800.00
2018-11-01T10:55:18.960Z,94813.00
2018-11-01T10:57:48.936Z,94805.00
2018-11-01T11:00:23.831Z,94785.00
2018-11-01T11:02:53.388Z,94772.00
2018-11-01T11:05:23.268Z,94765.00
2018-11-01T11:07:52.778Z,94767.00
2018-11-01T11:10:22.297Z,94749.00
2018-11-01T11:12:52.320Z,94746.00
2018-11-01T11:15:22.019Z,94755.00
2018-11-01T11:17:51.821Z,94761.00
2018-11-01T11:20:21.481Z,94774.00
2018-11-01T11:22:50.987Z,94768.00
2018-11-01T11:25:20.439Z,94754.00
2018-11-01T11:27:49.962Z,94746.00
2018-11-01T11:30:20.154Z,94746.00
2018-11-01T11:32:49.697Z,94739.00
2018-11-01T11:35:20.036Z,94744.00
2018-11-01T11:37:49.630Z,94741.00
2018-11-01T11:40:20.618Z,94734.00
2018-11-01T11:42:50.377Z,94730.00
2018-11-01T11:45:20.980Z,94722.00
2018-11-01T11:47:50.915Z,94726.00
2018-11-01T11:50:20.537Z,94718.00
2018-11-01T11:52:50.067Z,94740.00
2018-11-01T11:55:19.667Z,94749.00
2018-11-01T11:57:49.318Z,94740.00
2018-11-01T12:00:19.476Z,94745.00
2018-11-01T12:02:49.082Z,94755.00
2018-11-01T12:05:18.739Z,94756.00
2018-11-01T12:07:48.458Z,94744.00
2018-11-01T12:10:18.087Z,94747.00
2018-11-01T12:12:47.726Z,94759.00
2018-11-01T12:15:17.269Z,94761.00
2018-11-01T12:17:46.830Z,94774.00
2018-11-01T12:20:16.212Z,94773.00
2018-11-01T12:22:45.737Z,94770.00
2018-11-01T12:25:15.353Z,94777.00
2018-11-01T12:27:44.864Z,94768.00
2018-11-01T12:30:14.261Z,94766.00
2018-11-01T12:32:43.683Z,94775.00
2018-11-01T12:35:13.210Z,94768.00
2018-11-01T12:37:42.634Z,94777.00
2018-11-01T12:40:13.092Z,94763.00
2018-11-01T12:42:42.863Z,94785.00
2018-11-01T12:45:13.219Z,94778.00
2018-11-01T12:47:42.949Z,94800.00
2018-11-01T12:50:14.273Z,94796.00
2018-11-01T12:52:43.603Z,94803.00
2018-11-01T12:55:13.091Z,94804.00
2018-11-01T12:57:42.570Z,94793.00
2018-11-01T13:00:13.233Z,94784.00
2018-11-01T13:02:42.983Z,94782.00
2018-11-01T13:05:12.357Z,94813.00
2018-11-01T13:07:41.815Z,94824.00
2018-11-01T13:10:11.578Z,94808.00
2018-11-01T13:12:40.971Z,94799.00
2018-11-01T13:15:12.182Z,94816.00
2018-11-01T13:17:41.813Z,94832.00
2018-11-01T13:20:11.770Z,94831.00
2018-11-01T13:22:41.366Z,94822.00
2018-11-01T13:25:11.794Z,94830.00
2018-11-01T13:27:41.405Z,94848.00
2018-11-01T13:30:13.345Z,94844.00
2018-11-01T13:32:44.219Z,94854.00
2018-11-01T13:35:15.311Z,94842.00
2018-11-01T13:37:46.941Z,94837.00
2018-11-01T13:40:16.672Z,94832.00
2018-11-01T13:42:48.093Z,94836.00
2018-11-01T13:45:17.553Z,94838.00
2018-11-01T13:47:47.315Z,94839.00
2018-11-01T13:50:16.803Z,94833.00
2018-11-01T13:52:46.322Z,94844.00
2018-11-01T13:55:15.840Z,94855.00
2018-11-01T13:57:45.626Z,94854.00
2018-11-01T14:00:16.041Z,94867.00
2018-11-01T14:02:45.715Z,94880.00
2018-11-01T14:05:16.386Z,94888.00
2018-11-01T14:07:46.070Z,94885.00
2018-11-01T14:10:17.305Z,94897.00
2018-11-01T14:12:46.958Z,94896.00
2018-11-01T14:15:17.101Z,94884.00
2018-11-01T14:17:46.194Z,94889.00
2018-11-01T14:20:16.616Z,94886.00
2018-11-01T14:22:47.024Z,94892.00
2018-11-01T14:25:17.351Z,94887.00
2018-11-01T14:27:46.962Z,94888.00
2018-11-01T14:30:17.356Z,94895.00
2018-11-01T14:32:46.916Z,94899.00
2018-11-01T14:35:16.459Z,94903.00
2018-11-01T14:37:45.883Z,94902.00
2018-11-01T14:40:15.631Z,94904.00
2018-11-01T14:42:45.245Z,94899.00
2018-11-01T14:45:14.787Z,94909.00
2018-11-01T14:47:44.449Z,94912.00
2018-11-01T14:50:13.931Z,94918.00
2018-11-01T14:52:44.120Z,94920.00
2018-11-01T14:55:13.469Z,94934.00
2018-11-01T14:57:43.859Z,94948.00
2018-11-01T15:00:12.795Z,94941.00
2018-11-01T15:02:43.473Z,94942.00
2018-11-01T15:05:12.917Z,94951.00
2018-11-01T15:07:42.467Z,94945.00
2018-11-01T15:10:13.782Z,94956.00
2018-11-01T15:12:44.214Z,94953.00
2018-11-01T15:15:13.731Z,94940.00
2018-11-01T15:17:43.332Z,94953.00
2018-11-01T15:20:13.247Z,94954.00
2018-11-01T15:22:43.693Z,94955.00
2018-11-01T15:25:13.521Z,94961.00
2018-11-01T15:27:43.097Z,94958.00
2018-11-01T15:30:15.452Z,94967.00
2018-11-01T15:32:45.487Z,94973.00
2018-11-01T15:35:14.934Z,94973.00
2018-11-01T15:37:44.446Z,94968.00
2018-11-01T15:40:14.365Z,94979.00
2018-11-01T15:42:48.745Z,94981.00
2018-11-01T15:45:18.423Z,94983.00
2018-11-01T15:47:48.063Z,94981.00
2018-11-01T15:50:17.565Z,94979.00
2018-11-01T15:52:48.258Z,94988.00
2018-11-01T15:55:17.742Z,94992.00
2018-11-01T15:57:47.204Z,94991.00
2018-11-01T16:00:16.812Z,94994.00
2018-11-01T16:02:47.071Z,94990.00
2018-11-01T16:05:16.640Z,94999.00
2018-11-01T16:07:48.294Z,95008.00
2018-11-01T16:10:17.804Z,95009.00
2018-11-01T16:12:48.128Z,95015.00
2018-11-01T16:15:17.671Z,95020.00
2018-11-01T16:17:47.176Z,95019.00
2018-11-01T16:20:16.695Z,95019.00
2018-11-01T16:22:46.260Z,95029.00
2018-11-01T16:25:15.703Z,95041.00
2018-11-01T16:27:45.237Z,95034.00
2018-11-01T16:30:14.816Z,95052.00
2018-11-01T16:32:44.310Z,95038.00
2018-11-01T16:35:13.822Z,95051.00
2018-11-01T16:37:43.450Z,95040.00
2018-11-01T16:40:13.260Z,95045.00
2018-11-01T16:42:42.859Z,95054.00
2018-11-01T16:45:14.953Z,95057.00
2018-11-01T16:47:44.441Z,95052.00
2018-11-01T16:50:13.855Z,95062.00
2018-11-01T16:52:43.562Z,95067.00
2018-11-01T16:55:13.047Z,95067.00
2018-11-01T16:57:42.576Z,95069.00
2018-11-01T17:13:17.006Z,95069.00
2018-11-01T17:15:46.588Z,95100.00
2018-11-01T17:18:16.064Z,95094.00
2018-11-01T17:20:46.163Z,95098.00
2018-11-01T17:23:15.695Z,95107.00
2018-11-01T17:25:45.197Z,95103.00
2018-11-01T17:28:15.922Z,95107.00
2018-11-01T17:30:45.779Z,95106.00
2018-11-01T17:33:15.857Z,95114.00
2018-11-01T17:35:50.253Z,95120.00
2018-11-01T17:38:19.672Z,95127.00
2018-11-01T17:40:50.664Z,95130.00
2018-11-01T17:43:20.513Z,95142.00
2018-11-01T17:45:50.202Z,95142.00
2018-11-01T17:48:19.863Z,95152.00
2018-11-01T17:50:49.417Z,95162.00
2018-11-01T17:53:19.507Z,95166.00
2018-11-01T17:55:49.121Z,95180.00
2018-11-01T17:58:18.701Z,95184.00
2018-11-01T18:00:52.334Z,95181.00
2018-11-01T18:03:21.951Z,95181.00
2018-11-01T18:05:51.497Z,95180.00
2018-11-01T18:08:21.856Z,95188.00
2018-11-01T18:10:51.720Z,95196.00
2018-11-01T18:13:21.604Z,95201.00
2018-11-01T18:15:52.153Z,95203.00
2018-11-01T18:18:21.772Z,95194.00
2018-11-01T18:20:51.483Z,95203.00
2018-11-01T18:23:21.762Z,95206.00
2018-11-01T18:25:51.760Z,95207.00
2018-11-01T18:28:21.605Z,95213.00
2018-11-01T18:30:51.153Z,95218.00
2018-11-01T18:33:20.818Z,95219.00
2018-11-01T18:35:50.694Z,95233.00
2018-11-01T18:38:20.429Z,95236.00
2018-11-01T18:41:04.622Z,95226.00
2018-11-01T18:43:34.418Z,95216.00
2018-11-01T18:46:03.904Z,95219.00
2018-11-01T18:48:33.403Z,95222.00
2018-11-01T18:51:03.089Z,95228.00
2018-11-01T18:53:32.838Z,95230.00
2018-11-01T18:56:02.380Z,95237.00
2018-11-01T18:58:32.608Z,95237.00
2018-11-01T19:01:02.299Z,95230.00
2018-11-01T19:03:32.719Z,95239.00
2018-11-01T19:06:04.663Z,95231.00
2018-11-01T19:08:34.104Z,95244.00
2018-11-01T19:11:04.269Z,95243.00
2018-11-01T19:13:33.813Z,95243.00
2018-11-01T19:16:03.498Z,95253.00
2018-11-01T19:18:33.722Z,95250.00
2018-11-01T19:21:03.941Z,95255.00
2018-11-01T19:23:33.359Z,95263.00
2018-11-01T19:26:09.833Z,95272.00
2018-11-01T19:28:39.635Z,95289.00
2018-11-01T19:31:09.324Z,95290.00
2018-11-01T19:33:39.605Z,95311.00
2018-11-01T19:36:09.173Z,95313.00
2018-11-01T19:38:38.635Z,95325.00
2018-11-01T19:41:08.148Z,95335.00
2018-11-01T19:43:37.781Z,95335.00
2018-11-01T19:46:07.568Z,95334.00
2018-11-01T19:48:37.530Z,95340.00
2018-11-01T19:51:08.078Z,95347.00
2018-11-01T19:53:38.006Z,95339.00
2018-11-01T19:56:07.826Z,95345.00
2018-11-01T19:58:37.405Z,95351.00
2018-11-01T20:01:06.931Z,95346.00
2018-11-01T20:03:37.081Z,95355.00
2018-11-01T20:06:07.161Z,95367.00
2018-11-01T20:08:38.199Z,95364.00
2018-11-01T20:11:07.809Z,95369.00
2018-11-01T20:13:37.959Z,95373.00
2018-11-01T20:16:08.234Z,95375.00
2018-11-01T20:18:38.793Z,95391.00
2018-11-01T20:21:08.387Z,95390.00
2018-11-01T20:23:41.386Z,95389.00
2018-11-01T20:26:12.009Z,95387.00
2018-11-01T20:28:41.855Z,95400.00
2018-11-01T20:31:13.306Z,95411.00
2018-11-01T20:33:44.625Z,95427.00
2018-11-01T20:36:14.066Z,95426.00
2018-11-01T20:38:45.588Z,95424.00
2018-11-01T20:41:15.741Z,95434.00
2018-11-01T20:43:45.296Z,95433.00
2018-11-01T20:46:14.915Z,95440.00
2018-11-01T20:48:44.396Z,95442.00
2018-11-01T20:51:15.707Z,95458.00
2018-11-01T20:53:45.060Z,95463.00
2018-11-01T20:56:14.502Z,95458.00
2018-11-01T20:58:44.180Z,95474.00
2018-11-01T21:01:13.764Z,95478.00
2018-11-01T21:03:43.490Z,95474.00
2018-11-01T21:06:13.090Z,95473.00
2018-11-01T21:08:42.570Z,95463.00
2018-11-01T21:11:12.399Z,95476.00
2018-11-01T21:13:41.942Z,95489.00
2018-11-01T21:16:11.534Z,95490.00
2018-11-01T21:18:40.993Z,95484.00
2018-11-01T21:21:11.668Z,95484.00
2018-11-01T21:23:41.638Z,95489.00
2018-11-01T21:26:11.399Z,95485.00
2018-11-01T21:28:40.870Z,95491.00
2018-11-01T21:31:10.542Z,95502.00
2018-11-01T21:33:40.090Z,95503.00
2018-11-01T21:36:09.657Z,95513.00
2018-11-01T21:38:39.817Z,95514.00
2018-11-01T21:41:09.321Z,95513.00
2018-11-01T21:43:38.865Z,95522.00
2018-11-01T21:46:09.703Z,95530.00
2018-11-01T21:48:39.203Z,95526.00
2018-11-01T21:51:09.023Z,95530.00
2018-11-01T21:53:38.601Z,95520.00
2018-11-01T21:56:08.551Z,95517.00
2018-11-01T21:58:38.140Z,95516.00
2018-11-01T22:01:07.949Z,95512.00
2018-11-01T22:03:37.482Z,95507.00
2018-11-01T22:06:07.146Z,95520.00
2018-11-01T22:08:38.046Z,95525.00
2018-11-01T22:11:07.532Z,95535.00
2018-11-01T22:13:37.326Z,95532.00
2018-11-01T22:16:07.555Z,95535.00
2018-11-01T22:18:38.025Z,95532.00
2018-11-01T22:21:07.532Z,95548.00
2018-11-01T22:23:37.050Z,95558.00
2018-11-01T22:26:07.212Z,95550.00
2018-11-01T22:28:40.997Z,95546.00
2018-11-01T22:31:10.398Z,95550.00
2018-11-01T22:33:39.863Z,95546.00
2018-11-01T22:36:09.379Z,95552.00
2018-11-01T22:38:40.227Z,95580.00
2018-11-01T22:41:10.077Z,95597.00
2018-11-01T22:46:11.442Z,95603.00
2018-11-01T22:48:41.037Z,95599.00
2018-11-01T22:51:11.484Z,95599.00
2018-11-01T22:53:41.119Z,95595.00
2018-11-01T22:56:11.616Z,95595.00
2018-11-01T22:58:42.147Z,95582.00
2018-11-01T23:01:12.164Z,95576.00
2018-11-01T23:03:41.654Z,95586.00
2018-11-01T23:06:11.257Z,95591.00
2018-11-01T23:08:40.769Z,95592.00
2018-11-01T23:11:11.053Z,95606.00
2018-11-01T23:13:40.617Z,95602.00
2018-11-01T23:16:10.099Z,95601.00
2018-11-01T23:18:39.731Z,95601.00
2018-11-01T23:21:09.294Z,95592.00
2018-11-01T23:23:38.967Z,95601.00
2018-11-01T23:26:09.152Z,95609.00
2018-11-01T23:28:38.722Z,95600.00
2018-11-01T23:31:09.076Z,95592.00
2018-11-01T23:33:38.680Z,95588.00
2018-11-01T23:36:07.169Z,95594.00
2018-11-01T23:38:41.856Z,95588.00
2018-11-01T23:41:16.520Z,95590.00
2018-11-01T23:43:51.245Z,95616.00
2018-11-01T23:46:26.559Z,95624.00
2018-11-01T23:49:05.528Z,95616.00
2018-11-01T23:51:38.956Z,95611.00
2018-11-01T23:54:08.652Z,95616.00
2018-11-01T23:56:38.842Z,95616.00
2018-11-01T23:59:15.678Z,95613.00
